Time;durP1;ratioP1;P1;durP2;ratioP2;P2;SDS_P1;SDS_P2;PMS_P1;PMS_P2;Temp;Humidity;BMP_temperature;BMP_pressure;BME280_temperature;BME280_humidity;BME280_pressure;Samples;Min_cycle;Max_cycle;Signal;HPM_P1;HPM_P2
2022/03/27 00:00:43;;;;;;;23.35;9.88;;;;;;;8.26;47.14;100462.00;5004550;28;20198;-75
2022/03/27 00:03:08;;;;;;;17.83;10.20;;;;;;;8.28;47.07;100462.81;5002441;28;20222;-75
2022/03/27 00:05:34;;;;;;;15.70;10.07;;;;;;;8.31;46.73;100464.44;5004591;28;20475;-75
2022/03/27 00:08:00;;;;;;;17.40;11.20;;;;;;;8.32;46.61;100461.78;5004695;28;20217;-75
2022/03/27 00:10:26;;;;;;;18.13;11.70;;;;;;;8.36;46.50;100478.22;5003466;28;20289;-75
2022/03/27 00:12:51;;;;;;;14.07;8.55;;;;;;;8.37;46.45;100467.69;4997755;28;20242;-76
2022/03/27 00:15:17;;;;;;;16.77;10.47;;;;;;;8.38;46.30;100464.16;5001036;28;20815;-75
2022/03/27 00:17:42;;;;;;;17.10;10.40;;;;;;;8.38;46.46;100466.75;5003866;28;20226;-75
2022/03/27 00:20:08;;;;;;;13.97;9.60;;;;;;;8.37;46.21;100465.06;5001773;28;20269;-74
2022/03/27 00:22:36;;;;;;;18.83;9.93;;;;;;;8.36;46.30;100471.19;4998365;28;20598;-75
2022/03/27 00:25:02;;;;;;;15.95;10.18;;;;;;;8.36;46.35;100465.13;4994994;28;20492;-76
2022/03/27 00:27:28;;;;;;;16.07;9.33;;;;;;;8.34;46.24;100459.94;4996606;28;20522;-74
2022/03/27 00:29:53;;;;;;;18.23;9.35;;;;;;;8.36;46.39;100465.13;5017507;28;20461;-75
2022/03/27 00:32:20;;;;;;;20.83;11.50;;;;;;;8.40;46.42;100461.50;4999716;28;20553;-75
2022/03/27 00:34:46;;;;;;;18.00;10.57;;;;;;;8.38;46.71;100473.78;4999614;28;20314;-75
2022/03/27 00:37:12;;;;;;;19.77;10.93;;;;;;;8.34;46.61;100467.78;4989711;28;20195;-75
2022/03/27 00:39:38;;;;;;;16.63;10.40;;;;;;;8.31;46.69;100464.44;4996707;28;20215;-74
2022/03/27 00:42:03;;;;;;;13.73;9.90;;;;;;;8.28;47.02;100461.97;5000483;28;20210;-75
2022/03/27 00:44:29;;;;;;;14.73;11.37;;;;;;;8.24;46.94;100461.25;4999206;28;20227;-74
2022/03/27 00:46:54;;;;;;;15.60;9.50;;;;;;;8.20;46.92;100463.13;5001952;28;20464;-76
2022/03/27 00:49:20;;;;;;;23.10;12.43;;;;;;;8.19;47.01;100465.81;5001923;28;20514;-76
2022/03/27 00:51:45;;;;;;;14.00;9.73;;;;;;;8.17;46.88;100467.63;5003065;28;20218;-76
2022/03/27 00:54:11;;;;;;;12.43;8.67;;;;;;;8.16;46.79;100458.94;5000964;28;20497;-75
2022/03/27 00:56:36;;;;;;;10.87;9.10;;;;;;;8.21;46.63;100461.38;4997522;28;20210;-76
2022/03/27 00:59:02;;;;;;;14.63;9.50;;;;;;;8.26;46.15;100469.03;4997522;28;20210;-75
2022/03/27 01:01:36;;;;;;;19.00;10.90;;;;;;;8.30;46.18;100470.63;4996256;28;20654;-75
2022/03/27 01:04:07;;;;;;;12.50;9.05;;;;;;;8.32;46.04;100463.56;4997118;28;20474;-75
2022/03/27 01:06:41;;;;;;;17.73;9.95;;;;;;;8.32;45.92;100460.94;4998501;28;20215;-75
2022/03/27 01:11:55;;;;;;;14.93;9.02;;;;;;;8.29;46.17;100458.41;5001810;28;20313;-75
2022/03/27 01:14:46;;;;;;;16.48;9.32;;;;;;;8.26;46.34;100458.56;5002155;28;20222;-75
2022/03/27 01:17:23;;;;;;;13.38;7.93;;;;;;;8.25;46.17;100460.31;4995584;28;20228;-75
2022/03/27 01:19:54;;;;;;;18.73;11.15;;;;;;;8.19;46.10;100453.56;4999661;28;20202;-75
2022/03/27 01:22:20;;;;;;;13.60;7.80;;;;;;;8.15;46.31;100453.75;5000638;28;20210;-75
2022/03/27 01:24:47;;;;;;;16.90;9.18;;;;;;;8.08;46.66;100454.94;4997521;28;20229;-75
2022/03/27 01:27:13;;;;;;;16.63;9.70;;;;;;;8.01;46.66;100459.53;5002580;28;20218;-76
2022/03/27 01:29:39;;;;;;;15.45;10.00;;;;;;;7.95;46.87;100450.16;4999969;28;20203;-76
2022/03/27 01:32:06;;;;;;;18.08;10.80;;;;;;;7.92;47.45;100444.22;4995624;28;20490;-75
2022/03/27 01:34:32;;;;;;;16.92;11.13;;;;;;;7.88;47.53;100447.84;5000577;28;20222;-76
2022/03/27 01:37:07;;;;;;;14.73;10.50;;;;;;;7.82;47.68;100448.09;4999972;28;20215;-76
2022/03/27 01:39:32;;;;;;;16.67;11.63;;;;;;;7.79;47.93;100443.81;5001094;28;20480;-75
2022/03/27 01:41:58;;;;;;;13.13;8.60;;;;;;;7.76;47.56;100447.41;5000355;28;20294;-75
2022/03/27 01:44:23;;;;;;;15.40;10.40;;;;;;;7.74;47.58;100451.00;4994026;28;20231;-73
2022/03/27 01:46:49;;;;;;;18.50;9.90;;;;;;;7.74;48.00;100444.00;4999795;28;20238;-73
2022/03/27 01:49:16;;;;;;;15.60;9.30;;;;;;;7.75;48.02;100447.50;4996485;28;20277;-73
2022/03/27 01:51:42;;;;;;;19.50;10.30;;;;;;;7.77;47.68;100443.03;5004105;28;20670;-73
2022/03/27 01:54:08;;;;;;;15.32;8.98;;;;;;;7.80;47.42;100447.28;4998117;28;20218;-73
2022/03/27 01:56:34;;;;;;;16.93;9.33;;;;;;;7.83;47.28;100452.41;4994567;28;20211;-73
2022/03/27 01:59:00;;;;;;;20.70;10.50;;;;;;;7.85;47.11;100442.72;4997380;28;20477;-73
2022/03/27 02:01:26;;;;;;;16.50;9.43;;;;;;;7.87;46.98;100440.91;4994706;28;21112;-73
2022/03/27 02:03:54;;;;;;;20.90;9.70;;;;;;;7.88;47.30;100438.22;5000467;28;20262;-73
2022/03/27 02:06:19;;;;;;;16.35;9.40;;;;;;;7.89;47.21;100447.78;4995964;28;20285;-73
2022/03/27 02:08:45;;;;;;;14.73;8.60;;;;;;;7.87;47.14;100443.53;4997402;28;20735;-73
2022/03/27 02:11:10;;;;;;;22.53;9.90;;;;;;;7.85;47.33;100456.66;4999743;28;20762;-73
2022/03/27 02:13:36;;;;;;;17.60;9.17;;;;;;;7.84;47.57;100446.28;4999233;28;20253;-73
2022/03/27 02:16:03;;;;;;;16.23;9.90;;;;;;;7.83;47.61;100450.66;5008814;28;20324;-73
2022/03/27 02:18:30;;;;;;;11.27;8.68;;;;;;;7.82;47.40;100454.16;5018442;28;20465;-73
2022/03/27 02:20:57;;;;;;;15.68;10.25;;;;;;;7.80;47.78;100449.91;5017390;28;20209;-73
2022/03/27 02:23:24;;;;;;;15.05;9.80;;;;;;;7.75;47.76;100450.94;5004853;28;20229;-73
2022/03/27 02:25:50;;;;;;;16.13;11.63;;;;;;;7.72;48.12;100448.47;5003843;28;20210;-75
2022/03/27 02:28:16;;;;;;;14.20;9.35;;;;;;;7.67;48.14;100455.63;4998601;28;20202;-75
2022/03/27 02:30:42;;;;;;;16.20;9.40;;;;;;;7.63;48.65;100453.16;4998612;28;20501;-76
2022/03/27 02:33:08;;;;;;;13.05;7.65;;;;;;;7.60;48.50;100454.13;5000562;28;20210;-76
2022/03/27 02:35:34;;;;;;;17.05;9.13;;;;;;;7.58;48.77;100455.94;4992171;28;20203;-75
2022/03/27 02:38:00;;;;;;;27.63;11.10;;;;;;;7.56;49.13;100452.56;4993402;28;20245;-75
2022/03/27 02:40:26;;;;;;;16.13;9.02;;;;;;;7.53;49.15;100458.75;5001824;28;20202;-74
2022/03/27 02:42:52;;;;;;;17.13;10.87;;;;;;;7.50;49.27;100458.00;4999799;28;20569;-76
2022/03/27 02:45:18;;;;;;;22.10;9.32;;;;;;;7.46;49.33;100462.50;4997628;28;20321;-75
2022/03/27 02:47:43;;;;;;;16.70;8.57;;;;;;;7.43;49.31;100456.53;4995840;28;20294;-76
2022/03/27 02:50:10;;;;;;;14.60;9.70;;;;;;;7.40;49.43;100456.63;5000340;28;20461;-76
2022/03/27 02:52:36;;;;;;;21.42;10.60;;;;;;;7.38;49.71;100461.94;4997490;28;20234;-76
2022/03/27 02:55:02;;;;;;;17.88;9.02;;;;;;;7.38;49.61;100466.31;4999604;28;20218;-75
2022/03/27 02:57:27;;;;;;;18.73;9.93;;;;;;;7.36;49.67;100462.91;4993760;28;20218;-74
2022/03/27 02:59:53;;;;;;;21.77;11.30;;;;;;;7.34;49.70;100465.56;4994640;28;20465;-76
2022/03/27 03:02:20;;;;;;;19.30;11.90;;;;;;;7.34;49.83;100460.31;4991315;28;21128;-73
2022/03/27 03:04:46;;;;;;;19.02;10.23;;;;;;;7.31;50.14;100461.28;4993494;28;20807;-76
2022/03/27 03:07:12;;;;;;;18.33;10.00;;;;;;;7.29;50.20;100465.75;4998681;28;20206;-75
2022/03/27 03:09:37;;;;;;;15.63;8.37;;;;;;;7.28;50.28;100471.00;4997270;28;20534;-76
2022/03/27 03:12:04;;;;;;;19.60;10.43;;;;;;;7.25;50.02;100469.34;4997604;28;20218;-74
2022/03/27 03:14:29;;;;;;;14.95;9.82;;;;;;;7.23;50.05;100467.72;4995675;28;20293;-74
2022/03/27 03:16:55;;;;;;;19.30;11.10;;;;;;;7.21;50.15;100465.16;4997588;28;20236;-75
2022/03/27 03:19:21;;;;;;;23.58;9.23;;;;;;;7.17;50.74;100467.94;4996155;28;20241;-74
2022/03/27 03:21:47;;;;;;;13.77;8.57;;;;;;;7.14;50.89;100474.13;4994820;28;20202;-74
2022/03/27 03:24:12;;;;;;;14.20;8.83;;;;;;;7.09;50.95;100468.19;5001710;28;20242;-74
2022/03/27 03:26:37;;;;;;;19.53;9.80;;;;;;;7.03;51.31;100476.25;4998020;28;20209;-74
2022/03/27 03:29:03;;;;;;;21.60;10.23;;;;;;;6.98;51.39;100476.41;5003807;28;20671;-74
2022/03/27 03:31:28;;;;;;;12.40;8.37;;;;;;;6.89;51.87;100470.69;4994729;28;20305;-74
2022/03/27 03:33:54;;;;;;;17.23;10.07;;;;;;;6.79;51.93;100472.75;4998809;28;20536;-76
2022/03/27 03:36:19;;;;;;;11.33;7.30;;;;;;;6.65;52.65;100470.59;4997599;28;20238;-75
2022/03/27 03:38:44;;;;;;;12.03;8.30;;;;;;;6.53;52.68;100478.81;5002120;28;20210;-75
2022/03/27 03:41:10;;;;;;;17.53;8.50;;;;;;;6.32;53.68;100478.63;5002414;28;20286;-74
2022/03/27 03:43:36;;;;;;;18.20;11.10;;;;;;;6.15;54.04;100483.53;5001829;28;20254;-74
2022/03/27 03:46:05;;;;;;;16.92;9.18;;;;;;;6.08;54.05;100482.88;5003424;28;20257;-74
2022/03/27 03:48:31;;;;;;;16.70;8.70;;;;;;;6.03;54.09;100489.97;5002668;28;20288;-74
2022/03/27 03:50:56;;;;;;;9.20;6.80;;;;;;;5.91;55.23;100490.31;5001878;28;20510;-74
2022/03/27 03:53:22;;;;;;;13.37;9.07;;;;;;;5.75;55.64;100495.13;5002598;28;20465;-75
2022/03/27 03:55:48;;;;;;;16.20;9.70;;;;;;;5.68;55.74;100494.47;4997115;28;20206;-74
2022/03/27 03:58:14;;;;;;;19.83;10.80;;;;;;;5.61;57.07;100492.09;5002141;28;20207;-75
2022/03/27 04:00:41;;;;;;;16.05;10.13;;;;;;;5.50;56.97;100495.00;5003595;28;20745;-74
2022/03/27 04:03:08;;;;;;;16.65;9.88;;;;;;;5.49;56.79;100498.50;4996424;28;20257;-74
2022/03/27 04:05:34;;;;;;;25.88;12.32;;;;;;;5.45;57.26;100496.88;4998024;28;20311;-75
2022/03/27 04:07:59;;;;;;;24.27;16.33;;;;;;;5.38;57.31;100498.81;5002940;28;20230;-75
2022/03/27 04:10:25;;;;;;;27.73;16.03;;;;;;;5.35;57.24;100500.63;4999773;28;20499;-74
2022/03/27 04:12:50;;;;;;;24.07;15.03;;;;;;;5.29;57.87;100496.44;4998828;28;20808;-74
2022/03/27 04:15:16;;;;;;;26.27;14.50;;;;;;;5.26;57.46;100496.53;4997357;28;20234;-74
2022/03/27 04:17:43;;;;;;;30.93;16.43;;;;;;;5.26;57.76;100493.94;4998105;28;20213;-75
2022/03/27 04:20:09;;;;;;;31.77;17.17;;;;;;;5.26;57.70;100494.78;4999396;28;20199;-74
2022/03/27 04:22:35;;;;;;;22.90;13.77;;;;;;;5.26;57.83;100499.97;4998893;28;20207;-75
2022/03/27 04:25:00;;;;;;;20.93;12.97;;;;;;;5.21;58.43;100495.81;4999166;28;20293;-74
2022/03/27 04:27:25;;;;;;;11.40;8.50;;;;;;;5.15;58.69;100503.78;4999408;28;20213;-74
2022/03/27 04:29:51;;;;;;;13.57;9.90;;;;;;;5.09;58.84;100505.66;5002097;28;20582;-74
2022/03/27 04:32:17;;;;;;;19.92;12.45;;;;;;;5.04;59.03;100509.28;4999540;28;21108;-74
2022/03/27 04:34:42;;;;;;;18.87;12.00;;;;;;;4.99;59.57;100506.78;4999364;28;20222;-74
2022/03/27 04:37:07;;;;;;;21.50;13.00;;;;;;;4.94;59.81;100520.81;4996320;28;20360;-75
2022/03/27 04:39:33;;;;;;;15.87;10.10;;;;;;;4.81;59.92;100517.69;5002034;28;20305;-74
2022/03/27 04:41:58;;;;;;;19.73;10.70;;;;;;;4.73;60.03;100517.03;4999922;28;20719;-75
2022/03/27 04:44:23;;;;;;;18.23;10.20;;;;;;;4.69;60.05;100516.25;5000264;28;20238;-74
2022/03/27 04:46:49;;;;;;;17.83;9.37;;;;;;;4.63;60.59;100522.47;4999481;28;20630;-74
2022/03/27 04:49:14;;;;;;;16.40;9.40;;;;;;;4.58;60.58;100520.88;5000426;28;21050;-74
2022/03/27 04:51:40;;;;;;;17.70;9.67;;;;;;;4.58;60.60;100518.25;4997469;28;20927;-75
2022/03/27 04:54:05;;;;;;;14.40;8.60;;;;;;;4.59;60.78;100525.16;4997239;28;20716;-74
2022/03/27 04:56:31;;;;;;;15.83;9.73;;;;;;;4.61;60.55;100526.00;4997142;28;20500;-75
2022/03/27 04:58:57;;;;;;;18.90;10.25;;;;;;;4.59;60.61;100523.44;5002939;28;20774;-74
2022/03/27 05:01:22;;;;;;;12.40;9.00;;;;;;;4.57;60.46;100527.81;5000106;28;20203;-74
2022/03/27 05:03:47;;;;;;;15.00;10.93;;;;;;;4.55;60.65;100531.34;4998798;28;20696;-74
2022/03/27 05:06:13;;;;;;;20.87;12.57;;;;;;;4.50;60.91;100534.06;4996312;28;20543;-75
2022/03/27 05:08:39;;;;;;;14.37;10.17;;;;;;;4.38;61.22;100535.22;5000309;28;20254;-75
2022/03/27 05:11:06;;;;;;;14.80;10.63;;;;;;;4.34;61.13;100527.50;4995465;28;20203;-75
2022/03/27 05:13:31;;;;;;;14.77;7.68;;;;;;;4.28;61.28;100535.44;4996344;28;20731;-75
2022/03/27 05:15:57;;;;;;;19.07;9.80;;;;;;;4.27;61.38;100538.97;4996916;28;20191;-75
2022/03/27 05:18:22;;;;;;;14.37;9.07;;;;;;;4.24;61.51;100534.69;4997356;28;20265;-75
2022/03/27 05:20:48;;;;;;;23.90;10.77;;;;;;;4.17;61.76;100530.50;4994579;28;20680;-75
2022/03/27 05:23:13;;;;;;;18.90;9.90;;;;;;;4.12;61.91;100546.19;4999558;28;20229;-75
2022/03/27 05:25:45;;;;;;;19.07;10.90;;;;;;;4.14;61.76;100540.97;4992582;28;20207;-75
2022/03/27 05:28:11;;;;;;;15.40;8.35;;;;;;;4.18;61.53;100540.84;4996149;28;20226;-75
2022/03/27 05:30:37;;;;;;;15.40;9.98;;;;;;;4.20;61.25;100541.66;4995820;28;20553;-74
2022/03/27 05:33:03;;;;;;;20.40;13.05;;;;;;;4.27;61.93;100550.22;4995887;28;20493;-75
2022/03/27 05:35:29;;;;;;;20.48;11.40;;;;;;;4.27;62.07;100541.56;4994486;28;20205;-75
2022/03/27 05:37:54;;;;;;;17.57;10.00;;;;;;;4.25;62.14;100548.53;4997335;28;20202;-75
2022/03/27 05:40:22;;;;;;;16.67;11.10;;;;;;;4.27;62.16;100552.81;4993639;28;20217;-75
2022/03/27 05:42:48;;;;;;;15.65;9.32;;;;;;;4.27;62.01;100550.22;4998968;28;20267;-75
2022/03/27 05:45:14;;;;;;;13.40;9.10;;;;;;;4.31;61.98;100550.97;4998633;28;20573;-75
2022/03/27 05:47:44;;;;;;;14.68;10.80;;;;;;;4.30;61.89;100559.69;4998069;28;20270;-76
2022/03/27 05:50:11;;;;;;;20.70;9.27;;;;;;;4.27;62.16;100562.38;4997155;28;20691;-75
2022/03/27 05:52:37;;;;;;;15.00;8.93;;;;;;;4.24;61.76;100554.59;4998601;28;20313;-75
2022/03/27 05:55:04;;;;;;;17.50;9.67;;;;;;;4.24;62.13;100565.00;4994320;28;20508;-75
2022/03/27 05:57:29;;;;;;;13.45;8.15;;;;;;;4.21;62.41;100563.31;4995533;28;20257;-75
2022/03/27 05:59:55;;;;;;;13.60;7.80;;;;;;;4.12;63.01;100567.00;4996175;28;20639;-75
2022/03/27 06:02:20;;;;;;;22.93;11.60;;;;;;;4.11;63.16;100572.25;4995781;28;20737;-75
2022/03/27 06:04:46;;;;;;;18.80;10.57;;;;;;;4.08;63.65;100574.88;4996251;28;20494;-75
2022/03/27 06:07:11;;;;;;;14.20;10.00;;;;;;;4.10;63.60;100584.34;4995389;28;20234;-75
2022/03/27 06:09:37;;;;;;;10.57;8.20;;;;;;;4.06;63.85;100580.13;4996503;28;20680;-74
2022/03/27 06:12:04;;;;;;;21.57;10.53;;;;;;;4.10;63.54;100586.97;4993291;28;20206;-75
2022/03/27 06:14:30;;;;;;;15.18;9.90;;;;;;;4.20;63.11;100585.03;4994966;28;20817;-75
2022/03/27 06:16:56;;;;;;;13.93;9.25;;;;;;;4.25;63.29;100582.34;4992928;28;20252;-75
2022/03/27 06:19:21;;;;;;;19.73;12.17;;;;;;;4.28;63.04;100587.47;4990433;28;20917;-74
2022/03/27 06:21:47;;;;;;;22.93;10.43;;;;;;;4.37;62.62;100592.44;4997797;28;20263;-75
2022/03/27 06:24:13;;;;;;;13.10;9.90;;;;;;;4.46;62.82;100596.63;4997601;28;20277;-74
2022/03/27 06:26:40;;;;;;;16.60;9.38;;;;;;;4.55;62.68;100592.03;4995748;28;20210;-74
2022/03/27 06:29:05;;;;;;;17.35;9.80;;;;;;;4.66;62.48;100590.03;5001225;28;20256;-75
2022/03/27 06:31:31;;;;;;;17.37;12.10;;;;;;;4.77;62.37;100594.13;4996309;28;20684;-75
2022/03/27 06:33:56;;;;;;;20.93;11.90;;;;;;;4.86;61.82;100600.00;4998419;28;20226;-75
2022/03/27 06:36:21;;;;;;;22.57;12.73;;;;;;;4.99;61.39;100599.69;4992483;28;20261;-74
2022/03/27 06:38:47;;;;;;;21.60;11.73;;;;;;;5.09;61.23;100604.63;4994621;28;20210;-74
2022/03/27 06:41:12;;;;;;;20.57;10.00;;;;;;;5.19;61.06;100599.19;4994915;28;20621;-74
2022/03/27 06:43:39;;;;;;;14.20;11.60;;;;;;;5.27;61.16;100600.69;5003919;28;20233;-74
2022/03/27 06:46:06;;;;;;;21.38;14.23;;;;;;;5.37;60.75;100603.91;4997207;28;20202;-75
2022/03/27 06:48:31;;;;;;;18.42;10.32;;;;;;;5.46;60.40;100602.81;4995797;28;20700;-74
2022/03/27 06:50:57;;;;;;;22.10;11.57;;;;;;;5.57;60.34;100597.31;4999833;28;20238;-75
2022/03/27 06:53:24;;;;;;;18.57;10.57;;;;;;;5.68;59.95;100603.09;4995096;28;20477;-74
2022/03/27 06:55:50;;;;;;;17.92;11.18;;;;;;;5.81;59.83;100595.78;4994648;28;20290;-74
2022/03/27 06:58:16;;;;;;;22.23;10.85;;;;;;;5.91;59.71;100605.94;4996960;28;20620;-75
2022/03/27 07:03:26;;;;;;;20.65;10.73;;;;;;;6.14;59.57;100601.81;5002666;28;20237;-75
2022/03/27 07:05:51;;;;;;;18.57;10.63;;;;;;;6.23;59.20;100596.31;5001007;28;20195;-74
2022/03/27 07:08:20;;;;;;;17.50;12.00;;;;;;;6.35;59.24;100602.94;5000594;28;20735;-74
2022/03/27 07:10:47;;;;;;;21.55;12.32;;;;;;;6.40;58.85;100590.63;5000538;28;20198;-74
2022/03/27 07:13:13;;;;;;;16.77;10.43;;;;;;;6.47;58.95;100588.66;5002865;28;20677;-74
2022/03/27 07:15:40;;;;;;;12.63;8.90;;;;;;;6.57;59.11;100585.72;4999765;28;20754;-75
2022/03/27 07:18:07;;;;;;;17.02;10.38;;;;;;;6.66;59.14;100592.38;4993058;28;20615;-74
2022/03/27 07:20:35;;;;;;;24.55;11.50;;;;;;;6.71;59.16;100587.03;4993219;28;20215;-74
2022/03/27 07:23:04;;;;;;;15.13;11.25;;;;;;;6.80;58.72;100589.34;4994652;28;20215;-74
2022/03/27 07:25:33;;;;;;;14.95;11.30;;;;;;;6.86;58.76;100592.63;4994239;28;20206;-76
2022/03/27 07:27:58;;;;;;;20.02;12.70;;;;;;;6.95;58.31;100598.44;4999234;28;20950;-74
2022/03/27 07:30:24;;;;;;;18.53;11.60;;;;;;;7.05;58.35;100599.84;4999336;28;20194;-75
2022/03/27 07:32:52;;;;;;;17.47;10.83;;;;;;;7.15;58.04;100593.38;4996658;28;20202;-74
2022/03/27 07:35:18;;;;;;;17.88;10.15;;;;;;;7.26;57.45;100591.28;4995879;28;20321;-74
2022/03/27 07:37:45;;;;;;;20.40;11.55;;;;;;;7.37;57.22;100601.38;5003352;28;20222;-74
2022/03/27 07:40:12;;;;;;;19.25;11.80;;;;;;;7.51;56.70;100595.66;5000590;28;20207;-75
2022/03/27 07:42:42;;;;;;;17.75;11.25;;;;;;;7.67;56.50;100599.44;5000595;28;20751;-74
2022/03/27 07:45:09;;;;;;;20.70;10.95;;;;;;;7.83;55.96;100597.13;5002749;28;20241;-76
2022/03/27 07:47:36;;;;;;;18.27;11.00;;;;;;;7.95;55.44;100590.59;5003072;28;20269;-74
2022/03/27 07:50:04;;;;;;;17.35;10.95;;;;;;;8.09;55.13;100588.28;5003778;28;20206;-74
2022/03/27 07:52:29;;;;;;;20.45;11.00;;;;;;;8.45;54.73;100585.19;5000676;28;20199;-76
2022/03/27 07:54:55;;;;;;;20.50;12.27;;;;;;;9.21;52.89;100591.72;5001158;28;20583;-75
2022/03/27 07:57:20;;;;;;;19.60;11.37;;;;;;;10.18;50.97;100584.84;5002595;28;20859;-74
2022/03/27 07:59:47;;;;;;;21.60;12.37;;;;;;;11.11;48.77;100579.50;5005141;28;20559;-74
2022/03/27 08:02:14;;;;;;;16.88;10.25;;;;;;;11.91;46.67;100578.88;5003276;28;20281;-74
2022/03/27 08:04:39;;;;;;;17.73;11.25;;;;;;;12.68;45.06;100571.13;5004372;28;20238;-76
2022/03/27 08:07:05;;;;;;;20.13;11.83;;;;;;;13.35;43.59;100569.88;5003093;28;20203;-75
2022/03/27 08:09:30;;;;;;;21.37;11.97;;;;;;;13.98;42.40;100579.22;5003661;28;20412;-74
2022/03/27 08:11:56;;;;;;;19.33;10.10;;;;;;;14.55;40.91;100573.84;4995214;28;20549;-76
2022/03/27 08:14:22;;;;;;;19.93;12.50;;;;;;;15.15;39.60;100567.28;4999254;28;20337;-76
2022/03/27 08:16:47;;;;;;;18.77;12.30;;;;;;;15.57;39.02;100564.44;4997110;28;20253;-74
2022/03/27 08:19:13;;;;;;;19.83;13.67;;;;;;;15.92;38.11;100562.00;4997258;28;20467;-74
2022/03/27 08:21:39;;;;;;;23.63;12.20;;;;;;;16.28;37.12;100562.97;4998784;28;20200;-74
2022/03/27 08:24:05;;;;;;;18.27;11.32;;;;;;;16.51;36.33;100561.31;4993683;28;20243;-76
2022/03/27 08:29:14;;;;;;;19.20;11.87;;;;;;;16.82;35.05;100554.59;4991946;28;20818;-76
2022/03/27 08:31:40;;;;;;;18.15;11.93;;;;;;;17.10;34.70;100561.34;5003278;28;21084;-77
2022/03/27 08:34:05;;;;;;;15.70;12.60;;;;;;;17.37;34.06;100558.41;5001985;28;20898;-75
2022/03/27 08:36:31;;;;;;;17.70;12.20;;;;;;;17.57;33.62;100559.50;5001013;28;20210;-75
2022/03/27 08:38:56;;;;;;;21.90;12.70;;;;;;;17.67;33.25;100563.13;4998459;28;20610;-74
2022/03/27 08:41:22;;;;;;;14.40;10.30;;;;;;;17.84;33.22;100559.19;4997646;28;20579;-74
2022/03/27 08:43:49;;;;;;;17.30;11.60;;;;;;;18.07;32.51;100562.69;5002903;28;20229;-74
2022/03/27 08:46:16;;;;;;;17.37;10.37;;;;;;;18.27;32.23;100569.06;5001410;28;20874;-75
2022/03/27 08:48:44;;;;;;;22.37;12.30;;;;;;;18.47;31.70;100555.94;5005103;28;20982;-75
2022/03/27 08:51:32;;;;;;;17.87;12.90;;;;;;;18.39;31.81;100550.41;4998105;28;20834;-76
2022/03/27 08:54:00;;;;;;;23.03;13.03;;;;;;;18.43;31.37;100551.88;5001399;28;21021;-75
2022/03/27 08:56:27;;;;;;;16.43;10.87;;;;;;;18.43;31.46;100549.19;5003604;28;20473;-75
2022/03/27 08:58:55;;;;;;;16.27;11.63;;;;;;;18.47;31.39;100555.94;5005238;28;20779;-74
2022/03/27 09:01:20;;;;;;;18.50;12.88;;;;;;;18.37;31.14;100557.69;4996505;28;20488;-76
2022/03/27 09:03:46;;;;;;;18.20;11.83;;;;;;;18.03;31.68;100560.38;4993438;28;20272;-76
2022/03/27 09:06:12;;;;;;;19.27;12.33;;;;;;;17.80;32.22;100554.25;4993165;28;20220;-75
2022/03/27 09:08:38;;;;;;;19.37;12.40;;;;;;;17.70;32.44;100562.91;4996034;28;20214;-75
2022/03/27 09:11:04;;;;;;;20.03;12.17;;;;;;;17.70;32.43;100565.56;4994860;28;20472;-76
2022/03/27 09:13:30;;;;;;;19.97;12.37;;;;;;;17.71;32.79;100563.75;4994300;28;20479;-75
2022/03/27 09:16:03;;;;;;;20.33;12.50;;;;;;;17.63;32.81;100568.81;4993458;28;20479;-75
2022/03/27 09:18:53;;;;;;;18.55;11.32;;;;;;;17.65;32.73;100565.06;4988524;28;20501;-75
2022/03/27 09:21:21;;;;;;;24.70;13.27;;;;;;;17.59;33.02;100564.72;4987562;28;20227;-74
2022/03/27 09:23:55;;;;;;;24.15;11.90;;;;;;;17.31;33.41;100558.88;4993625;28;20232;-75
2022/03/27 09:26:21;;;;;;;16.93;11.70;;;;;;;16.94;34.25;100563.47;4991861;28;20201;-77
2022/03/27 09:28:54;;;;;;;24.17;13.15;;;;;;;16.73;34.31;100563.22;4993746;28;20452;-77
2022/03/27 09:31:24;;;;;;;17.13;12.23;;;;;;;16.71;34.40;100562.50;4994661;28;20245;-74
2022/03/27 09:33:49;;;;;;;26.75;12.73;;;;;;;16.46;34.79;100553.69;4991569;28;20282;-74
2022/03/27 09:36:29;;;;;;;17.00;11.37;;;;;;;16.28;34.98;100558.53;4996590;28;20217;-77
2022/03/27 09:39:04;;;;;;;17.00;11.93;;;;;;;16.26;35.15;100557.81;5000065;28;20269;-74
2022/03/27 09:41:33;;;;;;;22.65;11.23;;;;;;;16.27;35.27;100545.38;4997136;28;20454;-76
2022/03/27 09:44:22;;;;;;;17.27;11.75;;;;;;;16.19;35.47;100555.69;4998588;28;20318;-73
2022/03/27 09:46:55;;;;;;;19.13;12.40;;;;;;;16.23;35.99;100555.38;5005527;28;20212;-74
2022/03/27 09:49:37;;;;;;;17.00;11.77;;;;;;;16.36;35.88;100550.88;4998446;28;20250;-77
2022/03/27 09:52:14;;;;;;;20.83;12.23;;;;;;;16.42;35.48;100549.59;4998894;28;21114;-73
2022/03/27 09:54:53;;;;;;;17.00;11.63;;;;;;;16.55;35.38;100552.16;5001600;28;20223;-77
2022/03/27 09:57:41;;;;;;;16.00;12.33;;;;;;;16.54;35.16;100550.47;5000360;28;20253;-74
2022/03/27 10:00:14;;;;;;;18.77;13.63;;;;;;;16.62;34.96;100556.06;4997613;28;20933;-75
2022/03/27 10:02:45;;;;;;;18.30;13.07;;;;;;;16.72;34.84;100550.94;4998507;28;21004;-74
2022/03/27 10:05:15;;;;;;;14.77;11.00;;;;;;;16.84;34.71;100550.03;4996825;28;20240;-74
2022/03/27 10:07:42;;;;;;;23.13;13.07;;;;;;;16.94;34.62;100545.75;4998225;28;20874;-76
2022/03/27 10:10:13;;;;;;;16.40;11.97;;;;;;;16.98;34.90;100541.03;4997931;28;21076;-74
2022/03/27 10:12:41;;;;;;;20.10;13.23;;;;;;;17.06;34.97;100543.13;5002793;28;20458;-75
2022/03/27 10:15:15;;;;;;;21.33;11.77;;;;;;;17.16;34.98;100537.00;4997265;28;20511;-76
2022/03/27 10:17:51;;;;;;;26.37;13.53;;;;;;;17.19;34.77;100536.75;4996662;28;21796;-73
2022/03/27 10:20:20;;;;;;;18.07;10.93;;;;;;;17.20;34.88;100530.50;4999339;28;20467;-73
2022/03/27 10:23:07;;;;;;;20.73;13.47;;;;;;;17.23;34.75;100532.06;5001802;28;20516;-75
2022/03/27 10:25:50;;;;;;;20.27;12.40;;;;;;;17.19;34.56;100525.28;5001523;28;20465;-76
2022/03/27 10:28:18;;;;;;;21.80;12.83;;;;;;;17.13;34.73;100523.13;4996792;28;20476;-76
2022/03/27 10:30:44;;;;;;;18.02;12.30;;;;;;;17.30;34.64;100524.47;4998701;28;20487;-74
2022/03/27 10:33:10;;;;;;;22.13;12.13;;;;;;;17.45;34.53;100528.59;5000335;28;20220;-73
2022/03/27 10:35:42;;;;;;;14.60;11.37;;;;;;;17.61;34.22;100528.25;4997657;28;20440;-76
2022/03/27 10:38:26;;;;;;;24.80;14.10;;;;;;;17.80;33.52;100517.88;4997815;28;20528;-76
2022/03/27 10:41:20;;;;;;;21.97;11.70;;;;;;;17.80;33.28;100512.56;4998004;28;21363;-74
2022/03/27 10:44:00;;;;;;;19.30;11.17;;;;;;;17.74;33.58;100509.50;5002627;28;20503;-74
2022/03/27 10:46:27;;;;;;;20.20;12.00;;;;;;;17.74;33.40;100509.50;4998089;28;20461;-75
2022/03/27 10:49:09;;;;;;;17.90;10.67;;;;;;;17.79;33.28;100510.03;4996587;28;20543;-77
2022/03/27 10:51:38;;;;;;;20.07;11.90;;;;;;;17.72;33.46;100506.16;4998746;28;20492;-74
2022/03/27 10:54:13;;;;;;;18.70;12.43;;;;;;;17.82;33.69;100494.69;4997640;28;20480;-76
2022/03/27 10:56:41;;;;;;;21.97;13.90;;;;;;;17.97;33.40;100502.41;5001187;28;20498;-74
2022/03/27 10:59:11;;;;;;;25.70;12.30;;;;;;;18.07;33.04;100487.41;5000937;28;20472;-76
2022/03/27 11:01:38;;;;;;;21.17;11.83;;;;;;;18.19;33.23;100486.41;5002830;28;20454;-75
2022/03/27 11:04:09;;;;;;;21.73;14.20;;;;;;;18.28;33.04;100476.81;4999611;28;20490;-74
2022/03/27 11:06:40;;;;;;;18.47;12.23;;;;;;;18.29;32.80;100475.88;5001821;28;20463;-74
2022/03/27 11:09:12;;;;;;;19.43;12.07;;;;;;;18.30;33.15;100469.56;4998814;28;20491;-77
2022/03/27 11:11:37;;;;;;;20.13;11.60;;;;;;;18.29;32.74;100474.03;4997794;28;20846;-74
2022/03/27 11:14:07;;;;;;;20.83;11.60;;;;;;;18.23;33.14;100458.59;5000684;28;20473;-77
2022/03/27 11:16:36;;;;;;;17.70;10.47;;;;;;;18.23;33.16;100466.56;4998492;28;20669;-76
2022/03/27 11:19:03;;;;;;;20.43;12.60;;;;;;;18.34;33.01;100468.34;4996909;28;20475;-76
2022/03/27 11:21:28;;;;;;;19.53;12.87;;;;;;;18.36;33.21;100463.72;4996761;28;20496;-75
2022/03/27 11:23:55;;;;;;;18.67;11.47;;;;;;;18.30;33.09;100458.91;5000550;28;20486;-74
2022/03/27 11:26:20;;;;;;;22.20;11.40;;;;;;;18.27;32.95;100446.72;5000777;28;20206;-74